sensor_id;sensor_type;location;lat;lon;timestamp;pressure;altitude;pressure_sealevel;temperature;humidity
21203;BME280;10759;51.982;9.232;2022-07-23T00:01:11;100531.50;;;15.50;100.00
21203;BME280;10759;51.982;9.232;2022-07-23T00:03:47;100581.59;;;15.73;100.00
21203;BME280;10759;51.982;9.232;2022-07-23T00:06:16;100611.47;;;15.85;100.00
21203;BME280;10759;51.982;9.232;2022-07-23T00:08:45;100613.94;;;15.90;100.00
21203;BME280;10759;51.982;9.232;2022-07-23T00:11:13;100618.63;;;15.86;100.00
21203;BME280;10759;51.982;9.232;2022-07-23T00:13:42;100621.38;;;15.85;100.00
21203;BME280;10759;51.982;9.232;2022-07-23T00:16:10;100506.09;;;15.05;100.00
21203;BME280;10759;51.982;9.232;2022-07-23T00:18:39;100604.94;;;15.74;100.00
21203;BME280;10759;51.982;9.232;2022-07-23T00:21:07;100622.28;;;15.85;100.00
21203;BME280;10759;51.982;9.232;2022-07-23T00:23:35;100623.41;;;15.81;100.00
21203;BME280;10759;51.982;9.232;2022-07-23T00:26:05;100512.03;;;15.11;100.00
21203;BME280;10759;51.982;9.232;2022-07-23T00:28:34;100607.56;;;15.75;100.00
21203;BME280;10759;51.982;9.232;2022-07-23T00:31:02;100613.66;;;15.79;100.00
21203;BME280;10759;51.982;9.232;2022-07-23T00:33:30;100603.69;;;15.79;100.00
21203;BME280;10759;51.982;9.232;2022-07-23T00:35:58;100489.66;;;15.25;100.00
21203;BME280;10759;51.982;9.232;2022-07-23T00:38:27;100603.44;;;15.84;100.00
21203;BME280;10759;51.982;9.232;2022-07-23T00:40:55;100600.22;;;15.93;100.00
21203;BME280;10759;51.982;9.232;2022-07-23T00:43:25;100458.75;;;14.99;100.00
21203;BME280;10759;51.982;9.232;2022-07-23T00:45:53;100618.78;;;15.99;100.00
21203;BME280;10759;51.982;9.232;2022-07-23T00:48:21;100616.53;;;16.07;100.00
21203;BME280;10759;51.982;9.232;2022-07-23T00:50:49;100607.91;;;16.01;100.00
21203;BME280;10759;51.982;9.232;2022-07-23T00:53:17;100519.41;;;15.41;100.00
21203;BME280;10759;51.982;9.232;2022-07-23T00:55:47;100600.31;;;15.76;100.00
21203;BME280;10759;51.982;9.232;2022-07-23T00:58:16;100594.03;;;15.75;100.00
21203;BME280;10759;51.982;9.232;2022-07-23T01:00:46;100496.34;;;15.18;100.00
21203;BME280;10759;51.982;9.232;2022-07-23T01:03:15;100579.34;;;15.63;100.00
21203;BME280;10759;51.982;9.232;2022-07-23T01:05:43;100576.41;;;15.68;100.00
21203;BME280;10759;51.982;9.232;2022-07-23T01:08:12;100586.00;;;15.74;100.00
21203;BME280;10759;51.982;9.232;2022-07-23T01:10:40;100572.25;;;15.78;100.00
21203;BME280;10759;51.982;9.232;2022-07-23T01:13:09;100578.78;;;15.74;100.00
21203;BME280;10759;51.982;9.232;2022-07-23T01:15:38;100517.19;;;15.32;100.00
21203;BME280;10759;51.982;9.232;2022-07-23T01:18:09;100580.59;;;15.74;100.00
21203;BME280;10759;51.982;9.232;2022-07-23T01:20:39;100562.34;;;15.61;100.00
21203;BME280;10759;51.982;9.232;2022-07-23T01:23:09;100566.78;;;15.62;100.00
21203;BME280;10759;51.982;9.232;2022-07-23T01:25:48;100566.78;;;15.62;100.00
21203;BME280;10759;51.982;9.232;2022-07-23T01:28:17;100571.88;;;15.68;100.00
21203;BME280;10759;51.982;9.232;2022-07-23T01:30:45;100574.75;;;15.65;100.00
21203;BME280;10759;51.982;9.232;2022-07-23T01:33:14;100582.56;;;15.54;100.00
21203;BME280;10759;51.982;9.232;2022-07-23T01:35:42;100591.69;;;15.52;100.00
21203;BME280;10759;51.982;9.232;2022-07-23T01:38:17;100598.16;;;15.49;100.00
21203;BME280;10759;51.982;9.232;2022-07-23T01:40:46;100608.44;;;15.58;100.00
21203;BME280;10759;51.982;9.232;2022-07-23T01:43:21;100613.75;;;15.60;100.00
21203;BME280;10759;51.982;9.232;2022-07-23T01:45:51;100608.28;;;15.61;100.00
21203;BME280;10759;51.982;9.232;2022-07-23T01:48:20;100538.28;;;14.92;100.00
21203;BME280;10759;51.982;9.232;2022-07-23T01:51:09;100575.59;;;15.17;100.00
21203;BME280;10759;51.982;9.232;2022-07-23T01:53:43;100582.44;;;15.40;100.00
21203;BME280;10759;51.982;9.232;2022-07-23T01:56:11;100603.75;;;15.62;100.00
21203;BME280;10759;51.982;9.232;2022-07-23T01:58:41;100587.78;;;15.57;100.00
21203;BME280;10759;51.982;9.232;2022-07-23T02:01:10;100572.53;;;15.56;100.00
21203;BME280;10759;51.982;9.232;2022-07-23T02:03:38;100607.81;;;15.71;100.00
21203;BME280;10759;51.982;9.232;2022-07-23T02:06:06;100612.44;;;15.51;100.00
21203;BME280;10759;51.982;9.232;2022-07-23T02:08:34;100622.47;;;15.65;100.00
21203;BME280;10759;51.982;9.232;2022-07-23T02:11:04;100521.81;;;15.14;100.00
21203;BME280;10759;51.982;9.232;2022-07-23T02:13:32;100631.94;;;15.74;100.00
21203;BME280;10759;51.982;9.232;2022-07-23T02:16:00;100625.75;;;15.72;100.00
21203;BME280;10759;51.982;9.232;2022-07-23T02:18:29;100619.41;;;15.55;100.00
21203;BME280;10759;51.982;9.232;2022-07-23T02:20:57;100584.25;;;15.23;100.00
21203;BME280;10759;51.982;9.232;2022-07-23T02:23:27;100584.78;;;15.30;100.00
21203;BME280;10759;51.982;9.232;2022-07-23T02:25:55;100573.72;;;15.35;100.00
21203;BME280;10759;51.982;9.232;2022-07-23T02:28:24;100573.63;;;15.70;100.00
21203;BME280;10759;51.982;9.232;2022-07-23T02:30:52;100548.81;;;15.45;100.00
21203;BME280;10759;51.982;9.232;2022-07-23T02:33:21;100562.53;;;15.58;100.00
21203;BME280;10759;51.982;9.232;2022-07-23T02:35:50;100572.31;;;15.77;100.00
21203;BME280;10759;51.982;9.232;2022-07-23T02:38:19;100482.28;;;15.29;100.00
21203;BME280;10759;51.982;9.232;2022-07-23T02:40:47;100568.06;;;15.73;100.00
21203;BME280;10759;51.982;9.232;2022-07-23T02:43:17;100547.81;;;15.64;100.00
21203;BME280;10759;51.982;9.232;2022-07-23T02:45:46;100550.50;;;15.48;100.00
21203;BME280;10759;51.982;9.232;2022-07-23T02:48:15;100552.94;;;15.68;100.00
21203;BME280;10759;51.982;9.232;2022-07-23T02:50:45;100537.88;;;15.64;100.00
21203;BME280;10759;51.982;9.232;2022-07-23T02:53:18;100521.75;;;15.31;100.00
21203;BME280;10759;51.982;9.232;2022-07-23T02:55:47;100570.09;;;15.67;100.00
21203;BME280;10759;51.982;9.232;2022-07-23T02:58:16;100565.56;;;15.52;100.00
21203;BME280;10759;51.982;9.232;2022-07-23T03:00:44;100548.13;;;15.26;100.00
21203;BME280;10759;51.982;9.232;2022-07-23T03:03:14;100576.88;;;15.43;100.00
21203;BME280;10759;51.982;9.232;2022-07-23T03:05:42;100574.13;;;15.60;100.00
21203;BME280;10759;51.982;9.232;2022-07-23T03:08:10;100487.00;;;14.92;100.00
21203;BME280;10759;51.982;9.232;2022-07-23T03:10:41;100462.13;;;14.69;100.00
21203;BME280;10759;51.982;9.232;2022-07-23T03:13:09;100511.97;;;15.29;100.00
21203;BME280;10759;51.982;9.232;2022-07-23T03:15:37;100544.94;;;15.51;100.00
21203;BME280;10759;51.982;9.232;2022-07-23T03:18:05;100530.19;;;15.41;100.00
21203;BME280;10759;51.982;9.232;2022-07-23T03:20:35;100529.94;;;15.61;100.00
21203;BME280;10759;51.982;9.232;2022-07-23T03:23:04;100547.13;;;15.60;100.00
21203;BME280;10759;51.982;9.232;2022-07-23T03:25:32;100530.91;;;15.60;100.00
21203;BME280;10759;51.982;9.232;2022-07-23T03:28:00;100526.44;;;15.59;100.00
21203;BME280;10759;51.982;9.232;2022-07-23T03:30:29;100517.13;;;15.49;100.00
21203;BME280;10759;51.982;9.232;2022-07-23T03:32:57;100509.03;;;15.49;100.00
21203;BME280;10759;51.982;9.232;2022-07-23T03:35:25;100508.75;;;15.38;100.00
21203;BME280;10759;51.982;9.232;2022-07-23T03:38:18;100536.41;;;15.59;100.00
21203;BME280;10759;51.982;9.232;2022-07-23T03:40:46;100495.00;;;15.27;100.00
21203;BME280;10759;51.982;9.232;2022-07-23T03:43:14;100543.78;;;15.55;100.00
21203;BME280;10759;51.982;9.232;2022-07-23T03:45:43;100456.72;;;15.18;100.00
21203;BME280;10759;51.982;9.232;2022-07-23T03:48:11;100543.84;;;15.71;100.00
21203;BME280;10759;51.982;9.232;2022-07-23T03:50:40;100543.25;;;15.64;100.00
21203;BME280;10759;51.982;9.232;2022-07-23T03:53:08;100453.34;;;15.15;100.00
21203;BME280;10759;51.982;9.232;2022-07-23T03:55:37;100553.78;;;15.71;100.00
21203;BME280;10759;51.982;9.232;2022-07-23T03:58:05;100561.25;;;15.65;100.00
21203;BME280;10759;51.982;9.232;2022-07-23T04:00:34;100549.53;;;15.49;100.00
21203;BME280;10759;51.982;9.232;2022-07-23T04:03:02;100554.88;;;15.51;100.00
21203;BME280;10759;51.982;9.232;2022-07-23T04:05:32;100406.22;;;14.73;100.00
21203;BME280;10759;51.982;9.232;2022-07-23T04:08:06;100562.53;;;15.58;100.00
21203;BME280;10759;51.982;9.232;2022-07-23T04:10:39;100545.00;;;15.50;100.00
21203;BME280;10759;51.982;9.232;2022-07-23T04:13:08;100431.34;;;14.73;100.00
21203;BME280;10759;51.982;9.232;2022-07-23T04:15:36;100556.66;;;15.50;100.00
21203;BME280;10759;51.982;9.232;2022-07-23T04:18:05;100536.78;;;15.35;100.00
21203;BME280;10759;51.982;9.232;2022-07-23T04:20:45;100553.00;;;15.35;100.00
21203;BME280;10759;51.982;9.232;2022-07-23T04:23:15;100475.69;;;15.01;100.00
21203;BME280;10759;51.982;9.232;2022-07-23T04:25:48;100564.41;;;15.40;100.00
21203;BME280;10759;51.982;9.232;2022-07-23T04:28:16;100546.91;;;15.32;100.00
21203;BME280;10759;51.982;9.232;2022-07-23T04:30:45;100438.75;;;14.70;100.00
21203;BME280;10759;51.982;9.232;2022-07-23T04:33:15;100559.28;;;15.36;100.00
21203;BME280;10759;51.982;9.232;2022-07-23T04:35:50;100555.94;;;15.31;100.00
21203;BME280;10759;51.982;9.232;2022-07-23T04:38:19;100562.69;;;15.39;100.00
21203;BME280;10759;51.982;9.232;2022-07-23T04:40:51;100546.59;;;15.20;100.00
21203;BME280;10759;51.982;9.232;2022-07-23T04:43:20;100527.94;;;15.00;100.00
21203;BME280;10759;51.982;9.232;2022-07-23T04:45:50;100463.88;;;14.70;100.00
21203;BME280;10759;51.982;9.232;2022-07-23T04:48:19;100537.81;;;15.82;100.00
21203;BME280;10759;51.982;9.232;2022-07-23T04:50:53;100553.38;;;16.24;100.00
21203;BME280;10759;51.982;9.232;2022-07-23T04:53:23;100559.72;;;16.69;100.00
21203;BME280;10759;51.982;9.232;2022-07-23T04:55:55;100574.78;;;17.04;100.00
21203;BME280;10759;51.982;9.232;2022-07-23T04:58:23;100573.72;;;17.06;100.00
21203;BME280;10759;51.982;9.232;2022-07-23T05:00:51;100568.41;;;17.05;100.00
21203;BME280;10759;51.982;9.232;2022-07-23T05:03:20;100573.94;;;17.32;100.00
21203;BME280;10759;51.982;9.232;2022-07-23T05:05:48;100569.78;;;17.41;100.00
21203;BME280;10759;51.982;9.232;2022-07-23T05:08:18;100565.50;;;17.65;100.00
21203;BME280;10759;51.982;9.232;2022-07-23T05:10:50;100565.47;;;17.79;100.00
21203;BME280;10759;51.982;9.232;2022-07-23T05:13:21;100578.28;;;18.19;100.00
21203;BME280;10759;51.982;9.232;2022-07-23T05:15:51;100559.69;;;18.40;100.00
21203;BME280;10759;51.982;9.232;2022-07-23T05:18:20;100556.75;;;18.43;99.12
21203;BME280;10759;51.982;9.232;2022-07-23T05:20:49;100568.06;;;18.50;99.17
21203;BME280;10759;51.982;9.232;2022-07-23T05:23:19;100571.56;;;18.24;100.00
21203;BME280;10759;51.982;9.232;2022-07-23T05:25:48;100587.75;;;17.85;100.00
21203;BME280;10759;51.982;9.232;2022-07-23T05:28:18;100571.84;;;17.78;100.00
21203;BME280;10759;51.982;9.232;2022-07-23T05:30:51;100582.34;;;17.85;100.00
21203;BME280;10759;51.982;9.232;2022-07-23T05:33:20;100427.47;;;16.93;100.00
21203;BME280;10759;51.982;9.232;2022-07-23T05:35:49;100540.53;;;17.60;100.00
21203;BME280;10759;51.982;9.232;2022-07-23T05:38:26;100560.16;;;17.64;100.00
21203;BME280;10759;51.982;9.232;2022-07-23T05:40:58;100569.16;;;17.78;100.00
21203;BME280;10759;51.982;9.232;2022-07-23T05:43:27;100573.25;;;17.28;100.00
21203;BME280;10759;51.982;9.232;2022-07-23T05:46:00;100573.63;;;17.51;100.00
21203;BME280;10759;51.982;9.232;2022-07-23T05:48:28;100584.28;;;17.54;100.00
21203;BME280;10759;51.982;9.232;2022-07-23T05:51:08;100575.78;;;17.46;100.00
21203;BME280;10759;51.982;9.232;2022-07-23T05:53:36;100583.03;;;17.45;100.00
21203;BME280;10759;51.982;9.232;2022-07-23T05:56:20;100582.72;;;17.50;100.00
21203;BME280;10759;51.982;9.232;2022-07-23T05:58:48;100592.41;;;17.54;100.00
21203;BME280;10759;51.982;9.232;2022-07-23T06:01:19;100588.53;;;17.58;100.00
21203;BME280;10759;51.982;9.232;2022-07-23T06:03:55;100595.41;;;17.64;100.00
21203;BME280;10759;51.982;9.232;2022-07-23T06:06:31;100585.31;;;17.94;100.00
21203;BME280;10759;51.982;9.232;2022-07-23T06:08:59;100580.19;;;17.90;100.00
21203;BME280;10759;51.982;9.232;2022-07-23T06:11:28;100552.81;;;17.80;100.00
21203;BME280;10759;51.982;9.232;2022-07-23T06:13:56;100571.09;;;17.91;100.00
21203;BME280;10759;51.982;9.232;2022-07-23T06:16:37;100575.31;;;18.09;100.00
21203;BME280;10759;51.982;9.232;2022-07-23T06:19:06;100582.91;;;17.90;100.00
21203;BME280;10759;51.982;9.232;2022-07-23T06:21:34;100587.41;;;18.31;100.00
21203;BME280;10759;51.982;9.232;2022-07-23T06:24:14;100584.09;;;18.40;100.00
21203;BME280;10759;51.982;9.232;2022-07-23T06:26:42;100587.16;;;18.48;100.00
21203;BME280;10759;51.982;9.232;2022-07-23T06:29:10;100586.75;;;18.54;100.00
21203;BME280;10759;51.982;9.232;2022-07-23T06:31:40;100587.34;;;18.72;100.00
21203;BME280;10759;51.982;9.232;2022-07-23T06:34:08;100476.19;;;18.18;100.00
21203;BME280;10759;51.982;9.232;2022-07-23T06:36:36;100541.19;;;18.72;100.00
21203;BME280;10759;51.982;9.232;2022-07-23T06:39:05;100504.91;;;18.60;97.26
21203;BME280;10759;51.982;9.232;2022-07-23T06:41:35;100604.69;;;19.09;96.47
21203;BME280;10759;51.982;9.232;2022-07-23T06:44:04;100605.56;;;19.10;96.24
21203;BME280;10759;51.982;9.232;2022-07-23T06:46:34;100609.78;;;19.27;94.75
21203;BME280;10759;51.982;9.232;2022-07-23T06:49:04;100478.44;;;18.51;95.77
21203;BME280;10759;51.982;9.232;2022-07-23T06:51:33;100620.88;;;19.11;91.59
21203;BME280;10759;51.982;9.232;2022-07-23T06:54:02;100604.22;;;18.90;93.00
21203;BME280;10759;51.982;9.232;2022-07-23T06:56:31;100616.09;;;18.75;94.09
21203;BME280;10759;51.982;9.232;2022-07-23T06:58:59;100619.81;;;18.74;94.38
21203;BME280;10759;51.982;9.232;2022-07-23T07:01:27;100630.47;;;18.77;92.39
21203;BME280;10759;51.982;9.232;2022-07-23T07:03:56;100607.84;;;18.63;95.00
21203;BME280;10759;51.982;9.232;2022-07-23T07:06:25;100624.34;;;19.00;97.52
21203;BME280;10759;51.982;9.232;2022-07-23T07:08:53;100627.22;;;19.37;88.94
21203;BME280;10759;51.982;9.232;2022-07-23T07:11:22;100639.78;;;19.64;86.97
21203;BME280;10759;51.982;9.232;2022-07-23T07:13:52;100632.75;;;19.74;87.01
21203;BME280;10759;51.982;9.232;2022-07-23T07:16:20;100637.50;;;19.83;84.83
21203;BME280;10759;51.982;9.232;2022-07-23T07:18:48;100637.19;;;19.75;84.82
21203;BME280;10759;51.982;9.232;2022-07-23T07:21:16;100639.03;;;19.87;87.13
21203;BME280;10759;51.982;9.232;2022-07-23T07:23:46;100650.78;;;19.88;82.95
21203;BME280;10759;51.982;9.232;2022-07-23T07:26:14;100653.06;;;19.81;79.16
21203;BME280;10759;51.982;9.232;2022-07-23T07:28:42;100638.81;;;19.65;81.32
21203;BME280;10759;51.982;9.232;2022-07-23T07:31:10;100540.69;;;19.31;82.26
21203;BME280;10759;51.982;9.232;2022-07-23T07:33:38;100560.75;;;19.54;79.23
21203;BME280;10759;51.982;9.232;2022-07-23T07:36:07;100546.19;;;19.55;81.99
21203;BME280;10759;51.982;9.232;2022-07-23T07:38:35;100644.91;;;20.18;82.21
21203;BME280;10759;51.982;9.232;2022-07-23T07:41:05;100634.88;;;20.31;79.80
21203;BME280;10759;51.982;9.232;2022-07-23T07:43:34;100650.16;;;20.45;77.07
21203;BME280;10759;51.982;9.232;2022-07-23T07:46:02;100641.75;;;20.61;77.54
21203;BME280;10759;51.982;9.232;2022-07-23T07:48:30;100627.63;;;20.19;80.53
21203;BME280;10759;51.982;9.232;2022-07-23T07:50:59;100622.63;;;20.13;79.35
21203;BME280;10759;51.982;9.232;2022-07-23T07:53:27;100603.34;;;19.92;77.91
21203;BME280;10759;51.982;9.232;2022-07-23T07:55:55;100658.91;;;20.37;79.02
21203;BME280;10759;51.982;9.232;2022-07-23T07:58:25;100661.25;;;20.55;77.40
21203;BME280;10759;51.982;9.232;2022-07-23T08:00:54;100625.56;;;20.47;75.37
21203;BME280;10759;51.982;9.232;2022-07-23T08:03:22;100663.22;;;20.53;75.80
21203;BME280;10759;51.982;9.232;2022-07-23T08:05:50;100666.69;;;20.31;76.93
21203;BME280;10759;51.982;9.232;2022-07-23T08:08:18;100658.72;;;20.28;79.27
21203;BME280;10759;51.982;9.232;2022-07-23T08:10:46;100659.84;;;20.12;76.29
21203;BME280;10759;51.982;9.232;2022-07-23T08:13:15;100677.94;;;20.13;76.42
21203;BME280;10759;51.982;9.232;2022-07-23T08:15:45;100662.91;;;20.21;75.68
21203;BME280;10759;51.982;9.232;2022-07-23T08:18:14;100664.34;;;20.37;74.06
21203;BME280;10759;51.982;9.232;2022-07-23T08:20:42;100667.53;;;20.68;74.70
21203;BME280;10759;51.982;9.232;2022-07-23T08:23:10;100673.41;;;20.75;74.73
21203;BME280;10759;51.982;9.232;2022-07-23T08:25:41;100679.34;;;20.56;76.08
21203;BME280;10759;51.982;9.232;2022-07-23T08:28:10;100676.94;;;20.51;75.32
21203;BME280;10759;51.982;9.232;2022-07-23T08:30:40;100676.75;;;20.42;76.76
21203;BME280;10759;51.982;9.232;2022-07-23T08:33:10;100678.13;;;20.84;73.41
21203;BME280;10759;51.982;9.232;2022-07-23T08:35:59;100673.91;;;20.80;71.68
21203;BME280;10759;51.982;9.232;2022-07-23T08:38:29;100643.97;;;20.91;71.76
21203;BME280;10759;51.982;9.232;2022-07-23T08:40:57;100662.94;;;20.69;70.30
21203;BME280;10759;51.982;9.232;2022-07-23T08:43:27;100678.59;;;20.41;71.00
21203;BME280;10759;51.982;9.232;2022-07-23T08:45:58;100690.25;;;20.43;71.00
21203;BME280;10759;51.982;9.232;2022-07-23T08:48:30;100568.84;;;19.92;68.91
21203;BME280;10759;51.982;9.232;2022-07-23T08:51:00;100686.88;;;20.76;69.79
21203;BME280;10759;51.982;9.232;2022-07-23T08:53:31;100681.16;;;20.68;70.14
21203;BME280;10759;51.982;9.232;2022-07-23T08:56:01;100687.44;;;20.93;70.75
21203;BME280;10759;51.982;9.232;2022-07-23T08:58:30;100681.13;;;21.28;67.64
21203;BME280;10759;51.982;9.232;2022-07-23T09:00:59;100680.22;;;21.62;71.47
21203;BME280;10759;51.982;9.232;2022-07-23T09:03:31;100689.78;;;22.02;69.80
21203;BME280;10759;51.982;9.232;2022-07-23T09:06:00;100587.53;;;21.51;65.53
21203;BME280;10759;51.982;9.232;2022-07-23T09:08:34;100658.97;;;21.32;65.70
21203;BME280;10759;51.982;9.232;2022-07-23T09:11:04;100707.31;;;20.82;66.98
21203;BME280;10759;51.982;9.232;2022-07-23T09:13:38;100687.19;;;20.48;69.65
21203;BME280;10759;51.982;9.232;2022-07-23T09:16:10;100706.63;;;20.54;67.74
21203;BME280;10759;51.982;9.232;2022-07-23T09:18:43;100698.59;;;20.90;68.40
21203;BME280;10759;51.982;9.232;2022-07-23T09:21:17;100694.97;;;21.60;63.63
21203;BME280;10759;51.982;9.232;2022-07-23T09:23:49;100679.69;;;21.46;62.67
21203;BME280;10759;51.982;9.232;2022-07-23T09:26:26;100694.75;;;21.28;63.11
21203;BME280;10759;51.982;9.232;2022-07-23T09:29:00;100687.78;;;21.23;66.51
21203;BME280;10759;51.982;9.232;2022-07-23T09:31:34;100647.56;;;20.92;65.15
21203;BME280;10759;51.982;9.232;2022-07-23T09:34:09;100658.69;;;20.77;64.36
21203;BME280;10759;51.982;9.232;2022-07-23T09:36:37;100699.16;;;20.58;65.47
21203;BME280;10759;51.982;9.232;2022-07-23T09:39:07;100633.69;;;19.99;67.24
21203;BME280;10759;51.982;9.232;2022-07-23T09:41:38;100698.28;;;20.57;68.00
21203;BME280;10759;51.982;9.232;2022-07-23T09:44:08;100691.28;;;20.66;65.86
21203;BME280;10759;51.982;9.232;2022-07-23T09:46:37;100694.44;;;20.84;65.55
21203;BME280;10759;51.982;9.232;2022-07-23T09:49:16;100699.59;;;21.35;64.95
21203;BME280;10759;51.982;9.232;2022-07-23T09:51:48;100699.94;;;21.77;62.47
21203;BME280;10759;51.982;9.232;2022-07-23T09:54:25;100671.56;;;22.02;62.11
21203;BME280;10759;51.982;9.232;2022-07-23T09:56:56;100685.19;;;22.47;60.05
21203;BME280;10759;51.982;9.232;2022-07-23T09:59:26;100655.94;;;22.27;56.80
21203;BME280;10759;51.982;9.232;2022-07-23T10:01:56;100578.13;;;21.67;59.85
21203;BME280;10759;51.982;9.232;2022-07-23T10:04:31;100675.78;;;22.29;54.28
21203;BME280;10759;51.982;9.232;2022-07-23T10:07:17;100642.56;;;22.01;53.09
21203;BME280;10759;51.982;9.232;2022-07-23T10:10:05;100685.31;;;22.46;55.05
21203;BME280;10759;51.982;9.232;2022-07-23T10:12:43;100697.28;;;22.77;57.86
21203;BME280;10759;51.982;9.232;2022-07-23T10:15:30;100693.63;;;22.44;56.44
21203;BME280;10759;51.982;9.232;2022-07-23T10:17:58;100636.09;;;21.46;56.61
21203;BME280;10759;51.982;9.232;2022-07-23T10:20:27;100699.19;;;21.75;58.29
21203;BME280;10759;51.982;9.232;2022-07-23T10:22:59;100705.31;;;22.01;57.50
21203;BME280;10759;51.982;9.232;2022-07-23T10:25:35;100694.13;;;22.16;53.74
21203;BME280;10759;51.982;9.232;2022-07-23T10:28:25;100607.13;;;21.56;55.19
21203;BME280;10759;51.982;9.232;2022-07-23T10:31:02;100703.19;;;22.05;57.33
21203;BME280;10759;51.982;9.232;2022-07-23T10:33:41;100695.38;;;21.67;58.12
21203;BME280;10759;51.982;9.232;2022-07-23T10:36:20;100697.59;;;21.61;59.84
21203;BME280;10759;51.982;9.232;2022-07-23T10:38:53;100696.13;;;21.91;58.45
21203;BME280;10759;51.982;9.232;2022-07-23T10:41:34;100694.41;;;22.24;56.73
21203;BME280;10759;51.982;9.232;2022-07-23T10:44:07;100696.59;;;22.19;55.50
21203;BME280;10759;51.982;9.232;2022-07-23T10:46:36;100667.44;;;22.19;58.76
21203;BME280;10759;51.982;9.232;2022-07-23T10:49:21;100690.94;;;22.77;54.76
21203;BME280;10759;51.982;9.232;2022-07-23T10:52:34;100694.28;;;22.80;51.39
21203;BME280;10759;51.982;9.232;2022-07-23T10:58:05;100689.19;;;23.19;53.58
21203;BME280;10759;51.982;9.232;2022-07-23T11:00:35;100668.84;;;23.12;51.89
21203;BME280;10759;51.982;9.232;2022-07-23T11:05:41;100685.66;;;23.28;53.75
21203;BME280;10759;51.982;9.232;2022-07-23T11:08:17;100678.38;;;23.18;53.76
21203;BME280;10759;51.982;9.232;2022-07-23T11:10:52;100594.66;;;22.31;53.91
21203;BME280;10759;51.982;9.232;2022-07-23T11:13:40;100661.19;;;22.62;55.26
21203;BME280;10759;51.982;9.232;2022-07-23T11:16:21;100690.94;;;22.22;56.17
21203;BME280;10759;51.982;9.232;2022-07-23T11:19:06;100636.13;;;21.69;58.05
21203;BME280;10759;51.982;9.232;2022-07-23T11:21:48;100684.22;;;22.26;56.10
21203;BME280;10759;51.982;9.232;2022-07-23T11:24:19;100604.47;;;22.11;54.83
21203;BME280;10759;51.982;9.232;2022-07-23T11:27:02;100675.16;;;22.37;54.08
21203;BME280;10759;51.982;9.232;2022-07-23T11:29:44;100672.13;;;22.51;59.04
21203;BME280;10759;51.982;9.232;2022-07-23T11:32:38;100636.44;;;22.75;53.88
21203;BME280;10759;51.982;9.232;2022-07-23T11:35:21;100679.63;;;23.34;53.97
21203;BME280;10759;51.982;9.232;2022-07-23T11:37:53;100679.63;;;23.13;53.24
21203;BME280;10759;51.982;9.232;2022-07-23T11:40:26;100660.44;;;23.04;51.48
21203;BME280;10759;51.982;9.232;2022-07-23T11:42:57;100676.34;;;22.99;53.49
21203;BME280;10759;51.982;9.232;2022-07-23T11:45:31;100609.41;;;22.72;53.06
21203;BME280;10759;51.982;9.232;2022-07-23T11:48:00;100672.97;;;22.95;53.82
21203;BME280;10759;51.982;9.232;2022-07-23T11:50:28;100561.59;;;22.45;52.42
21203;BME280;10759;51.982;9.232;2022-07-23T11:53:00;100648.66;;;22.92;54.75
21203;BME280;10759;51.982;9.232;2022-07-23T11:55:30;100670.94;;;23.08;53.30
21203;BME280;10759;51.982;9.232;2022-07-23T11:57:58;100610.78;;;23.20;56.22
21203;BME280;10759;51.982;9.232;2022-07-23T12:00:30;100673.34;;;23.65;54.00
21203;BME280;10759;51.982;9.232;2022-07-23T12:03:06;100661.53;;;23.33;55.14
21203;BME280;10759;51.982;9.232;2022-07-23T12:05:38;100490.34;;;22.27;51.89
21203;BME280;10759;51.982;9.232;2022-07-23T12:08:09;100348.13;;;21.34;54.13
21203;BME280;10759;51.982;9.232;2022-07-23T12:10:42;100673.72;;;23.29;53.37
21203;BME280;10759;51.982;9.232;2022-07-23T12:13:13;100470.97;;;21.87;52.73
21203;BME280;10759;51.982;9.232;2022-07-23T12:15:44;100566.03;;;22.46;54.39
21203;BME280;10759;51.982;9.232;2022-07-23T12:18:17;100552.63;;;22.55;55.44
21203;BME280;10759;51.982;9.232;2022-07-23T12:20:50;100639.91;;;23.09;53.59
21203;BME280;10759;51.982;9.232;2022-07-23T12:23:26;100560.41;;;22.27;51.25
21203;BME280;10759;51.982;9.232;2022-07-23T12:26:01;100593.34;;;22.46;53.27
21203;BME280;10759;51.982;9.232;2022-07-23T12:28:31;100565.63;;;22.30;54.70
21203;BME280;10759;51.982;9.232;2022-07-23T12:31:02;100439.78;;;21.69;53.92
21203;BME280;10759;51.982;9.232;2022-07-23T12:33:33;100555.00;;;22.69;54.42
21203;BME280;10759;51.982;9.232;2022-07-23T12:36:03;100650.50;;;23.45;55.84
21203;BME280;10759;51.982;9.232;2022-07-23T12:38:37;100675.34;;;23.63;52.51
21203;BME280;10759;51.982;9.232;2022-07-23T12:41:08;100665.09;;;23.55;51.94
21203;BME280;10759;51.982;9.232;2022-07-23T12:43:39;100644.16;;;23.44;50.39
21203;BME280;10759;51.982;9.232;2022-07-23T12:46:11;100635.78;;;23.15;50.98
21203;BME280;10759;51.982;9.232;2022-07-23T12:48:50;100672.56;;;23.32;51.02
21203;BME280;10759;51.982;9.232;2022-07-23T12:51:21;100676.25;;;23.21;51.45
21203;BME280;10759;51.982;9.232;2022-07-23T12:53:53;100671.03;;;23.18;50.71
21203;BME280;10759;51.982;9.232;2022-07-23T12:56:29;100669.66;;;22.91;53.72
21203;BME280;10759;51.982;9.232;2022-07-23T12:59:04;100674.78;;;23.17;53.79
21203;BME280;10759;51.982;9.232;2022-07-23T13:01:35;100485.72;;;22.28;53.21
21203;BME280;10759;51.982;9.232;2022-07-23T13:04:04;100680.09;;;23.40;51.02
21203;BME280;10759;51.982;9.232;2022-07-23T13:06:42;100674.19;;;23.34;50.27
21203;BME280;10759;51.982;9.232;2022-07-23T13:09:15;100680.56;;;23.45;50.01
21203;BME280;10759;51.982;9.232;2022-07-23T13:11:46;100659.03;;;23.30;50.11